Time;durP1;ratioP1;P1;durP2;ratioP2;P2;SDS_P1;SDS_P2;PMS_P1;PMS_P2;Temp;Humidity;BMP_temperature;BMP_pressure;BME280_temperature;BME280_humidity;BME280_pressure;Samples;Min_cycle;Max_cycle;Signal;HPM_P1;HPM_P2
2022/07/24 00:00:00;;;;;;;5.43;3.10;;;30.60;51.50;;;;;;6184337;23;20005;-78
2022/07/24 00:02:25;;;;;;;4.57;2.40;;;30.60;51.20;;;;;;6184660;23;20405;-77
2022/07/24 00:04:56;;;;;;;6.38;2.95;;;30.30;50.20;;;;;;6185379;23;20020;-76
2022/07/24 00:07:22;;;;;;;6.43;2.08;;;30.30;50.60;;;;;;6158157;23;20647;-76
2022/07/24 00:09:47;;;;;;;5.35;2.45;;;30.30;50.90;;;;;;6158410;23;20301;-76
2022/07/24 00:12:13;;;;;;;4.63;2.28;;;30.20;49.70;;;;;;6183763;23;20051;-76
2022/07/24 00:14:39;;;;;;;3.92;2.63;;;29.80;50.50;;;;;;6185153;23;20392;-77
2022/07/24 00:17:04;;;;;;;3.65;2.70;;;29.80;50.80;;;;;;6186484;23;20072;-76
2022/07/24 00:19:30;;;;;;;4.07;2.42;;;29.90;51.50;;;;;;6186569;23;20412;-77
2022/07/24 00:21:57;;;;;;;3.05;2.67;;;29.80;51.70;;;;;;6186146;23;20430;-77
2022/07/24 00:24:23;;;;;;;2.20;2.00;;;29.70;51.90;;;;;;6185780;23;20001;-78
2022/07/24 00:26:48;;;;;;;7.05;2.42;;;29.80;52.30;;;;;;6185693;23;20336;-78
2022/07/24 00:29:14;;;;;;;5.47;2.40;;;29.90;52.60;;;;;;6186502;23;20039;-77
2022/07/24 00:31:40;;;;;;;4.78;2.58;;;29.90;53.00;;;;;;6186106;23;19997;-79
2022/07/24 00:34:05;;;;;;;2.72;2.10;;;29.90;53.00;;;;;;6186791;23;20439;-79
2022/07/24 00:36:31;;;;;;;2.25;2.05;;;30.00;53.50;;;;;;6186143;23;20336;-79
2022/07/24 00:38:57;;;;;;;4.40;2.47;;;30.00;53.70;;;;;;6185308;23;19997;-79
2022/07/24 00:41:22;;;;;;;4.13;1.88;;;30.00;53.60;;;;;;6186146;23;20436;-78
2022/07/24 00:44:12;;;;;;;3.75;1.90;;;30.00;53.80;;;;;;6159502;23;20005;-79
2022/07/24 00:46:39;;;;;;;3.30;2.22;;;30.00;53.90;;;;;;6185244;23;20005;-79
2022/07/24 00:49:07;;;;;;;4.32;2.63;;;29.90;54.00;;;;;;6185118;23;20067;-78
2022/07/24 00:51:35;;;;;;;3.08;2.17;;;30.00;54.00;;;;;;6185723;23;20432;-79
2022/07/24 00:54:03;;;;;;;2.13;1.90;;;29.90;54.10;;;;;;6185056;23;20016;-78
2022/07/24 00:56:29;;;;;;;5.45;2.67;;;29.90;54.10;;;;;;6158870;23;20088;-78
2022/07/24 00:58:55;;;;;;;4.40;2.63;;;29.90;54.30;;;;;;6184360;23;20029;-79
2022/07/24 01:01:21;;;;;;;5.47;2.83;;;29.90;54.40;;;;;;6159163;23;20421;-77
2022/07/24 01:03:47;;;;;;;3.38;2.55;;;29.90;54.40;;;;;;6185926;23;20001;-77
2022/07/24 01:06:14;;;;;;;3.33;2.50;;;29.90;54.40;;;;;;6186267;23;20008;-77
2022/07/24 01:08:40;;;;;;;3.28;2.20;;;29.90;54.40;;;;;;6186009;23;20001;-77
2022/07/24 01:11:06;;;;;;;3.60;2.60;;;29.90;54.50;;;;;;6159178;23;20005;-77
2022/07/24 01:13:32;;;;;;;3.28;2.97;;;29.80;54.50;;;;;;6185944;23;20434;-77
2022/07/24 01:15:58;;;;;;;2.90;2.10;;;29.70;54.80;;;;;;6185421;23;20001;-75
2022/07/24 01:18:24;;;;;;;3.85;2.58;;;29.70;55.00;;;;;;6185880;23;20009;-77
2022/07/24 01:20:50;;;;;;;4.25;2.40;;;29.70;55.00;;;;;;6184608;23;20491;-79
2022/07/24 01:23:16;;;;;;;3.22;2.40;;;29.60;55.10;;;;;;6184529;23;20005;-79
2022/07/24 01:25:42;;;;;;;3.80;2.10;;;29.60;55.30;;;;;;6185849;23;20021;-79
2022/07/24 01:28:08;;;;;;;3.28;2.40;;;29.50;55.40;;;;;;6184496;23;20092;-78
2022/07/24 01:30:34;;;;;;;2.70;2.10;;;29.50;55.60;;;;;;6158655;23;20293;-78
2022/07/24 01:33:00;;;;;;;6.82;2.30;;;29.50;55.70;;;;;;6184134;23;20008;-77
2022/07/24 01:35:26;;;;;;;2.38;2.17;;;29.50;55.80;;;;;;6184912;23;20005;-78
2022/07/24 01:37:52;;;;;;;3.90;2.33;;;29.50;55.80;;;;;;6184612;23;20032;-77
2022/07/24 01:40:19;;;;;;;2.75;2.10;;;29.40;55.70;;;;;;6184092;23;20190;-77
2022/07/24 01:42:44;;;;;;;2.40;2.20;;;29.50;55.90;;;;;;6184707;23;20373;-77
2022/07/24 01:45:10;;;;;;;4.13;2.20;;;29.40;56.00;;;;;;6185705;23;20028;-76
2022/07/24 01:47:36;;;;;;;2.70;2.25;;;29.50;56.20;;;;;;6159197;23;20327;-76
2022/07/24 01:50:02;;;;;;;2.22;1.98;;;29.50;56.30;;;;;;6184808;23;20001;-78
2022/07/24 01:52:28;;;;;;;2.55;2.30;;;29.40;56.20;;;;;;6184272;23;20309;-77
2022/07/24 01:54:54;;;;;;;4.35;2.25;;;29.40;56.50;;;;;;6185835;23;20005;-77
2022/07/24 01:57:20;;;;;;;4.65;3.22;;;29.40;56.60;;;;;;6184748;23;20044;-76
2022/07/24 01:59:46;;;;;;;3.15;2.85;;;29.40;57.10;;;;;;6185583;23;20435;-76
2022/07/24 02:02:12;;;;;;;4.32;2.50;;;29.30;57.00;;;;;;6184423;23;20005;-77
2022/07/24 02:04:38;;;;;;;2.95;2.35;;;29.30;57.20;;;;;;6185157;23;20051;-77
2022/07/24 02:07:04;;;;;;;5.90;2.90;;;29.30;57.20;;;;;;6184996;23;20001;-76
2022/07/24 02:09:29;;;;;;;5.65;2.83;;;29.30;57.20;;;;;;6185715;23;20004;-77
2022/07/24 02:11:55;;;;;;;4.45;3.05;;;29.30;57.20;;;;;;6184633;23;19997;-76
2022/07/24 02:14:21;;;;;;;5.85;3.20;;;29.20;57.20;;;;;;6185540;23;20017;-78
2022/07/24 02:16:47;;;;;;;8.05;3.45;;;29.20;57.30;;;;;;6184849;23;20442;-77
2022/07/24 02:19:13;;;;;;;4.22;3.38;;;29.20;57.20;;;;;;6184733;23;20005;-77
2022/07/24 02:21:39;;;;;;;7.10;3.67;;;28.90;57.40;;;;;;6157610;23;20498;-77
2022/07/24 02:24:05;;;;;;;4.68;3.53;;;28.70;58.10;;;;;;6185196;23;20001;-77
2022/07/24 02:26:31;;;;;;;6.65;3.10;;;28.70;58.50;;;;;;6184847;23;19997;-77
2022/07/24 02:28:56;;;;;;;3.38;3.08;;;28.60;58.20;;;;;;6157960;23;20035;-77
2022/07/24 02:31:22;;;;;;;3.25;2.95;;;28.70;58.40;;;;;;6184338;23;19997;-77
2022/07/24 02:33:50;;;;;;;3.90;2.80;;;28.80;58.40;;;;;;6184555;23;20016;-77
2022/07/24 02:36:15;;;;;;;5.30;3.03;;;28.80;58.30;;;;;;6184882;23;20080;-77
2022/07/24 02:38:42;;;;;;;5.22;3.10;;;28.80;58.30;;;;;;6183768;23;20040;-78
2022/07/24 02:41:07;;;;;;;6.13;2.65;;;28.80;58.30;;;;;;6184475;23;20017;-77
2022/07/24 02:43:33;;;;;;;4.38;3.10;;;28.80;58.30;;;;;;6184756;23;20462;-78
2022/07/24 02:45:59;;;;;;;4.88;2.95;;;28.80;58.40;;;;;;6185281;23;19997;-78
2022/07/24 02:48:25;;;;;;;5.47;3.20;;;28.90;58.40;;;;;;6184539;23;20001;-78
2022/07/24 02:50:52;;;;;;;6.22;3.63;;;28.90;58.40;;;;;;6184631;23;19998;-78
2022/07/24 02:53:17;;;;;;;5.15;3.50;;;29.00;58.40;;;;;;6183363;23;20001;-77
2022/07/24 02:55:43;;;;;;;5.00;3.50;;;29.00;58.20;;;;;;6185231;23;20012;-77
2022/07/24 02:58:09;;;;;;;4.68;3.65;;;29.00;58.30;;;;;;6182987;23;20025;-79
2022/07/24 03:00:35;;;;;;;4.95;3.35;;;29.00;58.30;;;;;;6184390;23;20055;-79
2022/07/24 03:03:01;;;;;;;4.75;3.70;;;28.90;58.20;;;;;;6184543;23;20059;-78
2022/07/24 03:05:27;;;;;;;4.18;3.55;;;28.90;58.40;;;;;;6184054;23;20011;-78
2022/07/24 03:07:53;;;;;;;5.30;4.22;;;28.90;58.50;;;;;;6184484;23;20076;-78
2022/07/24 03:10:19;;;;;;;6.47;4.60;;;28.90;58.50;;;;;;6184408;23;20008;-76
2022/07/24 03:12:45;;;;;;;5.65;4.45;;;28.90;58.60;;;;;;6183489;23;20059;-76
2022/07/24 03:15:11;;;;;;;4.10;3.70;;;28.90;58.50;;;;;;6183791;23;20001;-77
2022/07/24 03:17:37;;;;;;;4.22;3.72;;;28.90;58.50;;;;;;6184700;23;20032;-77
2022/07/24 03:20:04;;;;;;;4.20;3.80;;;28.90;58.60;;;;;;6184699;23;20047;-77
2022/07/24 03:22:30;;;;;;;5.32;3.40;;;28.90;58.70;;;;;;6184484;23;20006;-77
2022/07/24 03:24:56;;;;;;;5.63;2.70;;;28.80;58.80;;;;;;6183932;23;20118;-77
2022/07/24 03:27:21;;;;;;;4.78;2.70;;;28.80;58.80;;;;;;6184223;23;20416;-77
2022/07/24 03:29:48;;;;;;;2.63;2.22;;;28.80;58.80;;;;;;6183802;23;20711;-76
2022/07/24 03:32:14;;;;;;;3.15;2.38;;;28.80;58.90;;;;;;6183598;23;20055;-76
2022/07/24 03:34:40;;;;;;;5.50;2.50;;;28.80;58.90;;;;;;6183424;23;20047;-76
2022/07/24 03:37:05;;;;;;;2.78;1.90;;;28.70;59.00;;;;;;6184556;23;20476;-75
2022/07/24 03:39:31;;;;;;;4.45;2.85;;;28.70;58.90;;;;;;6183400;23;20036;-76
2022/07/24 03:41:57;;;;;;;2.40;2.08;;;28.60;59.20;;;;;;6184168;23;20008;-76
2022/07/24 03:44:23;;;;;;;5.13;3.17;;;28.60;59.30;;;;;;6183869;23;20007;-75
2022/07/24 03:46:48;;;;;;;3.60;2.85;;;28.40;59.90;;;;;;6183838;23;20001;-76
2022/07/24 03:49:14;;;;;;;3.40;3.10;;;28.20;60.50;;;;;;6183514;23;20004;-76
2022/07/24 03:51:40;;;;;;;3.08;2.75;;;27.90;61.10;;;;;;6185887;23;20001;-76
2022/07/24 03:54:05;;;;;;;9.85;3.38;;;27.70;61.90;;;;;;6184987;23;20001;-77
2022/07/24 03:56:31;;;;;;;3.95;3.00;;;27.60;62.00;;;;;;6186676;23;20431;-74
2022/07/24 03:58:57;;;;;;;5.57;3.47;;;27.40;62.70;;;;;;6185109;23;20076;-76
2022/07/24 04:01:22;;;;;;;4.32;2.88;;;27.20;63.70;;;;;;6159118;23;20087;-76
2022/07/24 04:03:48;;;;;;;4.38;2.92;;;27.20;63.20;;;;;;6185416;23;20008;-78
2022/07/24 04:06:14;;;;;;;4.68;2.45;;;27.40;63.20;;;;;;6185585;23;20335;-77
2022/07/24 04:08:40;;;;;;;5.80;2.70;;;27.50;62.30;;;;;;6185144;23;19994;-76
2022/07/24 04:11:07;;;;;;;3.28;2.58;;;27.60;62.20;;;;;;6184943;23;20523;-77
2022/07/24 04:13:33;;;;;;;2.88;2.30;;;27.60;62.00;;;;;;6185055;23;20005;-76
2022/07/24 04:15:59;;;;;;;5.80;3.28;;;27.70;61.90;;;;;;6186545;23;20001;-78
2022/07/24 04:18:25;;;;;;;3.50;2.80;;;27.50;61.80;;;;;;6186264;23;20012;-78
2022/07/24 04:20:51;;;;;;;3.80;2.95;;;27.40;62.20;;;;;;6186013;23;20079;-77
2022/07/24 04:23:17;;;;;;;5.38;2.67;;;27.40;62.60;;;;;;6184917;23;20384;-78
2022/07/24 04:25:43;;;;;;;7.43;3.17;;;27.40;62.70;;;;;;6185585;23;20454;-77
2022/07/24 04:28:09;;;;;;;5.32;3.15;;;27.30;62.90;;;;;;6185180;23;19998;-76
2022/07/24 04:30:34;;;;;;;3.53;2.85;;;27.10;62.90;;;;;;6185521;23;20004;-77
2022/07/24 04:33:00;;;;;;;6.65;3.00;;;27.10;63.40;;;;;;6159145;23;20497;-76
2022/07/24 04:35:26;;;;;;;6.35;2.83;;;27.00;63.30;;;;;;6184823;23;20084;-75
2022/07/24 04:37:52;;;;;;;3.90;2.92;;;26.70;64.10;;;;;;6185491;23;20427;-77
2022/07/24 04:40:17;;;;;;;3.53;3.20;;;26.70;64.60;;;;;;6184797;23;20063;-74
2022/07/24 04:42:43;;;;;;;2.67;2.25;;;26.70;64.50;;;;;;6185633;23;20005;-75
2022/07/24 04:45:10;;;;;;;4.68;2.55;;;26.90;63.90;;;;;;6185112;23;20004;-73
2022/07/24 04:47:37;;;;;;;5.35;2.95;;;27.00;63.80;;;;;;6185070;23;20001;-70
2022/07/24 04:50:05;;;;;;;4.30;3.17;;;26.80;64.00;;;;;;6184777;23;20052;-75
2022/07/24 04:52:31;;;;;;;3.72;2.83;;;26.60;64.60;;;;;;6185299;23;20032;-75
2022/07/24 04:54:56;;;;;;;2.83;1.90;;;26.70;64.60;;;;;;6185421;23;20483;-77
2022/07/24 04:57:22;;;;;;;3.42;2.45;;;26.90;64.30;;;;;;6185468;23;20009;-73
2022/07/24 04:59:48;;;;;;;3.63;2.85;;;27.00;64.10;;;;;;6184930;23;20416;-73
2022/07/24 05:02:14;;;;;;;7.97;2.72;;;27.00;63.90;;;;;;6184857;23;20024;-73
2022/07/24 05:04:40;;;;;;;4.35;3.05;;;27.00;64.00;;;;;;6185997;23;20377;-73
2022/07/24 05:07:06;;;;;;;4.15;2.80;;;27.00;63.80;;;;;;6185188;23;20009;-73
2022/07/24 05:09:31;;;;;;;3.80;2.80;;;27.10;63.60;;;;;;6186104;23;20491;-72
2022/07/24 05:11:57;;;;;;;4.38;2.67;;;27.20;63.60;;;;;;6184798;23;20001;-72
2022/07/24 05:14:23;;;;;;;42.75;4.28;;;27.20;63.50;;;;;;6185304;23;20443;-72
2022/07/24 05:16:48;;;;;;;4.38;2.72;;;27.30;63.00;;;;;;6185029;23;20080;-72
2022/07/24 05:19:14;;;;;;;3.70;2.88;;;27.40;63.00;;;;;;6185449;23;20005;-73
2022/07/24 05:21:40;;;;;;;3.80;2.60;;;27.30;63.10;;;;;;6184568;23;20336;-73
2022/07/24 05:24:06;;;;;;;2.50;2.30;;;27.40;63.00;;;;;;6182392;23;20015;-73
2022/07/24 05:26:32;;;;;;;3.30;2.58;;;27.50;62.90;;;;;;6184390;23;20001;-72
2022/07/24 05:29:02;;;;;;;3.30;2.38;;;27.50;62.80;;;;;;6184043;23;20008;-73
2022/07/24 05:31:28;;;;;;;3.35;2.30;;;27.60;62.70;;;;;;6184725;23;20001;-73
2022/07/24 05:33:54;;;;;;;2.15;1.95;;;27.60;62.70;;;;;;6185155;23;20043;-73
2022/07/24 05:36:20;;;;;;;5.32;3.10;;;27.70;62.60;;;;;;6185574;23;20043;-73
2022/07/24 05:38:46;;;;;;;4.47;2.55;;;27.70;62.40;;;;;;6184974;23;20001;-73
2022/07/24 05:41:12;;;;;;;5.68;3.10;;;27.80;62.20;;;;;;6183984;23;20020;-73
2022/07/24 05:43:38;;;;;;;3.58;3.08;;;27.80;62.10;;;;;;6184138;23;20075;-73
2022/07/24 05:46:04;;;;;;;4.60;2.85;;;27.80;62.10;;;;;;6184706;23;20005;-73
2022/07/24 05:48:30;;;;;;;2.70;2.45;;;27.90;62.00;;;;;;6185189;23;20036;-73
2022/07/24 05:50:56;;;;;;;3.10;2.45;;;28.00;62.00;;;;;;6184911;23;20408;-72
2022/07/24 05:53:23;;;;;;;3.33;2.75;;;28.00;61.80;;;;;;6184143;23;20001;-75
2022/07/24 05:55:49;;;;;;;4.28;2.53;;;28.10;61.70;;;;;;6184942;23;20543;-75
2022/07/24 05:58:15;;;;;;;6.07;2.50;;;28.30;61.50;;;;;;6185077;23;20005;-76
2022/07/24 06:00:41;;;;;;;5.38;3.13;;;28.30;61.10;;;;;;6185263;23;20001;-76
2022/07/24 06:03:06;;;;;;;3.80;2.70;;;28.40;60.70;;;;;;6183640;23;20005;-76
2022/07/24 06:05:32;;;;;;;2.80;2.30;;;28.40;60.70;;;;;;6185414;23;20112;-76
2022/07/24 06:07:58;;;;;;;5.45;2.60;;;28.40;60.50;;;;;;6185039;23;19997;-76
2022/07/24 06:10:24;;;;;;;3.78;2.20;;;28.50;60.10;;;;;;6185054;23;20001;-76
2022/07/24 06:12:50;;;;;;;5.68;2.97;;;28.50;60.00;;;;;;6184292;23;20014;-77
2022/07/24 06:15:16;;;;;;;3.10;2.80;;;28.50;59.80;;;;;;6185484;23;20001;-77
2022/07/24 06:17:42;;;;;;;3.83;2.22;;;28.50;59.40;;;;;;6184633;23;20029;-76
2022/07/24 06:20:12;;;;;;;3.97;2.30;;;28.60;59.50;;;;;;6158948;23;20109;-76
2022/07/24 06:22:40;;;;;;;2.65;2.28;;;28.70;59.80;;;;;;6156783;23;20375;-78
2022/07/24 06:25:07;;;;;;;7.22;2.72;;;28.70;59.20;;;;;;6185073;23;20424;-80
2022/07/24 06:27:32;;;;;;;3.63;2.90;;;28.70;59.20;;;;;;6183789;23;20041;-79
2022/07/24 06:29:58;;;;;;;2.63;2.20;;;28.80;59.20;;;;;;6184397;23;20078;-78
2022/07/24 06:32:24;;;;;;;2.55;1.88;;;28.90;58.70;;;;;;6185598;23;20420;-78
2022/07/24 06:34:50;;;;;;;3.63;2.67;;;28.90;58.40;;;;;;6185753;23;20008;-77
2022/07/24 06:37:15;;;;;;;5.05;2.80;;;29.00;58.20;;;;;;6185310;23;20042;-78
2022/07/24 06:39:41;;;;;;;2.95;2.28;;;29.00;57.10;;;;;;6185278;23;20095;-78
2022/07/24 06:42:07;;;;;;;8.98;3.20;;;29.10;57.70;;;;;;6185574;23;20007;-78
2022/07/24 06:44:36;;;;;;;3.60;2.97;;;29.10;57.60;;;;;;6158775;23;20301;-78
2022/07/24 06:47:01;;;;;;;4.57;2.58;;;29.20;57.20;;;;;;6185271;23;20012;-79
2022/07/24 06:49:27;;;;;;;5.78;3.30;;;29.30;57.10;;;;;;6159384;23;20309;-77
2022/07/24 06:51:53;;;;;;;2.80;2.50;;;29.30;56.80;;;;;;6185609;23;19997;-78
2022/07/24 06:54:19;;;;;;;2.30;2.10;;;29.30;56.30;;;;;;6185692;23;20412;-77
2022/07/24 06:56:44;;;;;;;3.95;2.67;;;29.30;56.30;;;;;;6185312;23;20416;-77
2022/07/24 06:59:10;;;;;;;2.95;2.40;;;29.30;56.10;;;;;;6185241;23;20416;-77
2022/07/24 07:01:36;;;;;;;3.17;2.15;;;29.40;56.40;;;;;;6185125;23;20331;-77
2022/07/24 07:04:01;;;;;;;2.60;1.90;;;29.50;56.70;;;;;;6185293;23;20009;-77
2022/07/24 07:06:27;;;;;;;3.33;2.45;;;29.60;56.50;;;;;;6184375;23;20439;-78
2022/07/24 07:08:52;;;;;;;2.45;2.22;;;29.60;56.30;;;;;;6184667;23;20029;-77
2022/07/24 07:11:18;;;;;;;3.33;2.55;;;29.70;56.50;;;;;;6185154;23;20400;-78
2022/07/24 07:13:44;;;;;;;5.10;2.88;;;29.70;56.40;;;;;;6158446;23;20424;-78
2022/07/24 07:16:09;;;;;;;4.50;2.97;;;29.80;56.10;;;;;;6185146;23;20005;-79
2022/07/24 07:18:36;;;;;;;3.92;2.80;;;29.90;55.80;;;;;;6184767;23;20005;-78
2022/07/24 07:21:02;;;;;;;2.60;2.40;;;30.00;56.30;;;;;;6185414;23;20084;-78
2022/07/24 07:23:28;;;;;;;4.40;3.15;;;30.00;55.50;;;;;;6185953;23;20016;-78
2022/07/24 07:25:54;;;;;;;4.88;3.00;;;30.00;55.10;;;;;;6185575;23;20009;-79
2022/07/24 07:28:20;;;;;;;4.60;2.95;;;30.10;55.20;;;;;;6185625;23;20001;-78
2022/07/24 07:30:46;;;;;;;2.80;2.58;;;30.10;55.20;;;;;;6185326;23;20004;-78
2022/07/24 07:33:12;;;;;;;4.47;3.20;;;30.20;54.90;;;;;;6184681;23;20001;-79
2022/07/24 07:35:38;;;;;;;8.18;4.03;;;30.20;54.90;;;;;;6158973;23;20028;-78
2022/07/24 07:38:04;;;;;;;3.45;3.08;;;30.30;54.80;;;;;;6159283;23;20056;-78
2022/07/24 07:40:30;;;;;;;4.35;2.83;;;30.40;54.70;;;;;;6172760;23;20021;-78
2022/07/24 07:42:55;;;;;;;7.75;3.83;;;30.40;54.60;;;;;;6185382;23;20001;-78
2022/07/24 07:45:21;;;;;;;3.35;2.90;;;30.50;53.40;;;;;;6185301;23;20001;-78
2022/07/24 07:47:47;;;;;;;3.25;2.60;;;30.50;54.10;;;;;;6185119;23;20437;-78
2022/07/24 07:50:13;;;;;;;3.83;2.88;;;30.60;54.20;;;;;;6185118;23;20081;-78
2022/07/24 07:52:38;;;;;;;6.22;3.38;;;30.60;54.20;;;;;;6185551;23;20549;-77
2022/07/24 07:55:05;;;;;;;6.43;3.25;;;30.70;54.50;;;;;;6184936;23;20087;-77
2022/07/24 07:57:31;;;;;;;3.80;3.25;;;30.70;54.30;;;;;;6184483;23;20005;-78
2022/07/24 07:59:57;;;;;;;3.05;2.50;;;30.80;53.90;;;;;;6184795;23;20447;-78
2022/07/24 08:02:22;;;;;;;3.97;2.75;;;30.90;53.80;;;;;;6184970;23;20005;-78
2022/07/24 08:04:48;;;;;;;4.45;2.88;;;30.90;53.40;;;;;;6183653;23;20005;-77
2022/07/24 08:07:14;;;;;;;4.32;3.50;;;30.90;53.50;;;;;;6183030;23;20324;-78
2022/07/24 08:09:40;;;;;;;3.30;2.97;;;31.00;53.30;;;;;;6185204;23;19997;-78
2022/07/24 08:12:06;;;;;;;2.88;2.42;;;31.10;53.60;;;;;;6185209;23;19997;-78
2022/07/24 08:14:32;;;;;;;3.65;3.00;;;31.10;53.60;;;;;;6185556;23;20009;-78
2022/07/24 08:16:58;;;;;;;3.40;2.92;;;31.20;53.50;;;;;;6184949;23;20033;-79
2022/07/24 08:19:24;;;;;;;3.63;2.97;;;31.30;53.40;;;;;;6183845;23;20062;-78
2022/07/24 08:21:49;;;;;;;4.15;3.03;;;31.30;53.20;;;;;;6184400;23;20408;-79
2022/07/24 08:24:20;;;;;;;4.28;3.15;;;31.40;53.30;;;;;;6184574;23;20005;-78
2022/07/24 08:26:47;;;;;;;3.83;3.38;;;31.50;52.60;;;;;;6184422;23;20069;-79
2022/07/24 08:29:14;;;;;;;7.45;3.58;;;31.50;52.60;;;;;;6184347;23;20027;-77
2022/07/24 08:31:40;;;;;;;7.78;3.83;;;31.50;52.00;;;;;;6184075;23;20009;-78
2022/07/24 08:34:06;;;;;;;3.50;3.20;;;31.60;52.20;;;;;;6183935;23;20009;-78
2022/07/24 08:36:31;;;;;;;4.47;3.30;;;31.60;52.00;;;;;;6184081;23;20328;-78
2022/07/24 08:38:57;;;;;;;3.78;3.38;;;31.80;52.70;;;;;;6185566;23;20332;-78
2022/07/24 08:41:23;;;;;;;4.43;4.03;;;31.80;52.80;;;;;;6185987;23;20040;-78
2022/07/24 08:43:49;;;;;;;5.38;3.47;;;31.90;52.40;;;;;;6186217;23;20001;-79
2022/07/24 08:46:15;;;;;;;4.22;3.55;;;32.00;52.50;;;;;;6183689;23;20364;-80
2022/07/24 08:48:45;;;;;;;10.45;4.38;;;32.00;52.80;;;;;;6185679;23;20005;-79
2022/07/24 08:51:14;;;;;;;4.53;3.63;;;32.10;51.70;;;;;;6185899;23;19993;-79
2022/07/24 08:53:40;;;;;;;4.20;3.78;;;32.20;51.40;;;;;;6185709;23;20001;-78
2022/07/24 08:56:06;;;;;;;4.05;3.33;;;32.20;51.40;;;;;;6183795;23;20064;-78
2022/07/24 08:58:37;;;;;;;4.88;4.20;;;32.30;51.20;;;;;;6185314;23;20008;-78
2022/07/24 09:01:03;;;;;;;10.05;4.07;;;32.30;49.80;;;;;;6185735;23;20005;-78
2022/07/24 09:03:37;;;;;;;4.05;3.63;;;32.30;50.20;;;;;;6185975;23;20066;-77
2022/07/24 09:06:06;;;;;;;3.50;2.90;;;32.30;50.90;;;;;;6186088;23;20052;-78
2022/07/24 09:08:32;;;;;;;;;;;32.40;50.60;;;;;;6186859;23;20036;-79
2022/07/24 09:10:59;;;;;;;3.20;2.80;;;32.40;50.60;;;;;;6183220;23;20231;-80
2022/07/24 09:13:29;;;;;;;6.72;3.80;;;32.60;50.80;;;;;;6183163;23;20012;-74
2022/07/24 09:15:55;;;;;;;;;;;32.60;49.80;;;;;;6185642;23;20012;-75
2022/07/24 09:18:28;;;;;;;3.25;2.95;;;32.70;49.90;;;;;;6183583;23;20258;-75
2022/07/24 09:20:55;;;;;;;7.10;3.22;;;32.70;48.90;;;;;;6184993;23;20005;-74
2022/07/24 09:23:21;;;;;;;3.22;2.92;;;32.80;50.10;;;;;;6184912;23;20013;-74
2022/07/24 09:25:54;;;;;;;3.55;3.05;;;32.90;50.30;;;;;;6183994;23;20005;-75
2022/07/24 09:28:20;;;;;;;4.78;3.45;;;33.00;50.10;;;;;;6183943;23;20429;-76
2022/07/24 09:30:48;;;;;;;6.60;3.38;;;33.00;49.90;;;;;;6185948;23;20005;-75
2022/07/24 09:33:14;;;;;;;3.63;3.13;;;33.10;49.80;;;;;;6185783;23;20005;-75
2022/07/24 09:35:49;;;;;;;3.78;3.47;;;33.20;50.00;;;;;;6186352;23;20070;-75
2022/07/24 09:38:17;;;;;;;6.25;3.33;;;33.10;49.40;;;;;;6184739;23;20467;-75
2022/07/24 09:41:05;;;;;;;4.18;3.17;;;33.20;49.80;;;;;;6183998;23;20021;-76
2022/07/24 09:43:36;;;;;;;6.05;3.47;;;33.30;50.20;;;;;;6183995;23;20124;-76
2022/07/24 09:46:05;;;;;;;5.40;3.55;;;33.40;50.70;;;;;;6185401;23;20447;-75
2022/07/24 09:48:35;;;;;;;4.53;3.53;;;33.60;50.20;;;;;;6184797;23;20048;-75
2022/07/24 09:51:04;;;;;;;5.53;3.40;;;33.70;47.50;;;;;;6184968;23;20100;-75
2022/07/24 09:53:32;;;;;;;3.33;2.95;;;33.80;48.30;;;;;;6184144;23;20055;-75
2022/07/24 09:56:06;;;;;;;4.07;3.17;;;33.80;48.30;;;;;;6185248;23;20520;-75
2022/07/24 09:58:38;;;;;;;5.07;2.75;;;33.90;48.10;;;;;;6183898;23;20013;-75
2022/07/24 10:01:06;;;;;;;4.28;3.13;;;34.00;47.00;;;;;;6184513;23;20009;-75
2022/07/24 10:03:34;;;;;;;3.95;3.05;;;34.00;45.50;;;;;;6181519;23;20037;-76
2022/07/24 10:06:03;;;;;;;4.03;2.83;;;34.10;45.90;;;;;;6184935;23;20001;-76
2022/07/24 10:08:31;;;;;;;2.90;2.13;;;34.20;45.60;;;;;;6183130;23;20005;-75
2022/07/24 10:10:57;;;;;;;3.42;2.53;;;34.30;45.20;;;;;;6184300;23;20001;-75
2022/07/24 10:13:29;;;;;;;2.47;2.13;;;34.50;44.30;;;;;;6184364;23;20001;-75
2022/07/24 10:16:13;;;;;;;3.47;2.40;;;34.50;43.90;;;;;;6184458;23;20424;-75
2022/07/24 10:18:46;;;;;;;4.18;2.00;;;34.60;43.40;;;;;;6183437;23;20011;-75
2022/07/24 10:21:17;;;;;;;4.07;2.78;;;34.70;43.00;;;;;;6184497;23;20087;-75
2022/07/24 10:24:05;;;;;;;2.72;2.25;;;34.80;42.60;;;;;;6184885;23;20498;-75
2022/07/24 10:26:37;;;;;;;4.28;2.80;;;35.00;41.60;;;;;;6185411;23;20035;-76
2022/07/24 10:29:11;;;;;;;3.67;2.65;;;35.10;41.40;;;;;;6183279;23;19997;-75
2022/07/24 10:31:42;;;;;;;5.60;3.00;;;35.20;41.70;;;;;;6184862;23;20420;-76
2022/07/24 10:34:32;;;;;;;4.80;2.65;;;35.30;41.80;;;;;;6184935;23;20001;-75
2022/07/24 10:37:11;;;;;;;4.55;3.17;;;35.40;41.70;;;;;;6184684;23;20068;-76
2022/07/24 10:39:46;;;;;;;2.90;2.70;;;35.50;41.10;;;;;;6181735;23;20028;-76
2022/07/24 10:42:12;;;;;;;6.97;2.88;;;35.60;41.50;;;;;;6184763;23;20112;-75
2022/07/24 10:44:38;;;;;;;3.88;2.67;;;35.70;41.40;;;;;;6182818;23;20037;-75
2022/07/24 10:47:16;;;;;;;5.95;2.90;;;35.80;41.10;;;;;;6183308;23;20008;-75
2022/07/24 10:49:42;;;;;;;5.47;3.25;;;35.90;41.60;;;;;;6173766;23;20378;-76
2022/07/24 10:52:27;;;;;;;7.18;3.58;;;36.00;41.80;;;;;;6182796;23;19997;-76
2022/07/24 10:55:31;;;;;;;3.33;3.00;;;36.10;41.60;;;;;;6183456;23;20001;-79
2022/07/24 10:57:57;;;;;;;3.65;3.00;;;36.20;40.40;;;;;;6184210;23;19997;-79
2022/07/24 11:00:29;;;;;;;3.25;2.85;;;36.30;42.00;;;;;;6185009;23;20021;-79
2022/07/24 11:03:04;;;;;;;4.43;3.03;;;36.40;42.10;;;;;;6183761;23;20076;-79
2022/07/24 11:05:33;;;;;;;3.05;2.80;;;36.60;42.30;;;;;;6184060;23;20051;-80
2022/07/24 11:08:13;;;;;;;5.22;3.40;;;36.70;42.60;;;;;;6184123;23;20080;-79
2022/07/24 11:10:49;;;;;;;3.75;3.00;;;37.00;42.60;;;;;;6183885;23;20004;-79
2022/07/24 11:13:33;;;;;;;3.72;3.13;;;37.10;42.30;;;;;;6184273;23;20435;-79
2022/07/24 11:16:10;;;;;;;4.35;3.17;;;37.30;42.10;;;;;;6184784;23;20071;-80
2022/07/24 11:18:52;;;;;;;4.95;3.40;;;37.40;40.80;;;;;;6183147;23;20008;-79
2022/07/24 11:21:37;;;;;;;3.17;2.80;;;37.40;40.80;;;;;;6183596;23;20036;-80
2022/07/24 11:24:19;;;;;;;5.47;3.45;;;37.60;40.80;;;;;;6182994;23;20051;-79
2022/07/24 11:27:22;;;;;;;4.53;3.63;;;37.70;40.60;;;;;;6183098;23;20052;-80
2022/07/24 11:29:53;;;;;;;4.18;2.70;;;38.00;40.40;;;;;;6119849;23;20340;-80
2022/07/24 11:32:18;;;;;;;3.65;2.90;;;38.10;39.60;;;;;;6167497;23;20005;-80
2022/07/24 11:34:46;;;;;;;3.60;3.30;;;38.10;39.60;;;;;;6183943;23;20375;-79
2022/07/24 11:37:12;;;;;;;5.72;3.08;;;38.30;39.00;;;;;;6183207;23;20404;-80
2022/07/24 11:39:40;;;;;;;4.50;2.70;;;38.50;38.70;;;;;;6181568;23;20020;-80
2022/07/24 11:42:09;;;;;;;3.05;2.38;;;38.80;37.90;;;;;;6182420;23;20008;-80
2022/07/24 11:44:46;;;;;;;3.05;2.63;;;39.10;37.30;;;;;;6183232;23;20083;-80
2022/07/24 11:47:17;;;;;;;3.40;2.88;;;39.50;36.40;;;;;;6183660;23;20001;-80
2022/07/24 11:49:47;;;;;;;4.00;3.03;;;39.70;36.40;;;;;;6183369;23;20023;-80
2022/07/24 11:52:16;;;;;;;3.50;2.55;;;40.00;35.10;;;;;;6183874;23;20459;-80
2022/07/24 11:54:42;;;;;;;4.57;3.22;;;40.20;35.90;;;;;;6184533;23;20005;-80
2022/07/24 11:57:17;;;;;;;2.50;2.30;;;40.50;35.30;;;;;;6184301;23;20054;-80
2022/07/24 11:59:43;;;;;;;4.43;2.90;;;40.60;34.70;;;;;;6184359;23;20001;-80
2022/07/24 12:02:10;;;;;;;5.15;2.60;;;40.80;34.90;;;;;;6182760;23;20104;-80
2022/07/24 12:04:39;;;;;;;4.70;2.50;;;40.80;33.00;;;;;;6182819;23;20087;-80
2022/07/24 12:07:09;;;;;;;4.70;2.50;;;41.00;33.50;;;;;;6183959;23;20051;-80
2022/07/24 12:09:56;;;;;;;6.32;2.03;;;41.00;32.90;;;;;;6184687;23;20092;-80
2022/07/24 12:12:38;;;;;;;4.43;2.30;;;41.10;32.90;;;;;;6182914;23;20091;-80
2022/07/24 12:15:13;;;;;;;2.50;2.30;;;41.20;32.80;;;;;;6184921;23;20084;-81
2022/07/24 12:18:00;;;;;;;3.53;2.30;;;41.40;32.70;;;;;;6184533;23;20001;-81
2022/07/24 12:20:40;;;;;;;3.80;2.33;;;41.50;30.80;;;;;;6186996;23;20408;-77
2022/07/24 12:23:09;;;;;;;4.45;2.25;;;41.70;31.90;;;;;;6186570;23;20005;-78
2022/07/24 12:25:34;;;;;;;2.65;2.45;;;41.70;31.60;;;;;;6186483;23;20071;-78
2022/07/24 12:28:11;;;;;;;3.78;2.20;;;41.80;30.90;;;;;;6184849;23;20412;-77
2022/07/24 12:30:38;;;;;;;2.88;2.25;;;41.80;31.00;;;;;;6186495;23;20052;-83
2022/07/24 12:33:08;;;;;;;4.60;2.47;;;42.00;30.50;;;;;;6186231;23;20001;-82
2022/07/24 12:35:54;;;;;;;2.95;2.33;;;42.10;29.80;;;;;;6186838;23;20012;-83
2022/07/24 12:38:40;;;;;;;5.13;2.53;;;42.20;30.00;;;;;;6186317;23;20009;-82
2022/07/24 12:41:10;;;;;;;3.08;2.00;;;42.20;30.00;;;;;;6186191;23;20019;-82
2022/07/24 12:43:54;;;;;;;3.80;2.25;;;42.30;30.00;;;;;;6186207;23;20015;-85
2022/07/24 12:46:23;;;;;;;3.10;1.90;;;42.30;29.70;;;;;;6186274;23;20005;-83
2022/07/24 12:49:05;;;;;;;4.82;2.30;;;42.30;29.80;;;;;;6185393;23;20005;-83
2022/07/24 12:51:50;;;;;;;3.03;2.33;;;42.40;29.90;;;;;;6186570;23;20004;-83